sensor_id;sensor_type;location;lat;lon;timestamp;P1;durP1;ratioP1;P2;durP2;ratioP2
14396;SDS011;50653;47.810;13.022;2023-12-22T00:00:43;1.37;;;0.50;;
14396;SDS011;50653;47.810;13.022;2023-12-22T00:03:12;1.47;;;1.37;;
14396;SDS011;50653;47.810;13.022;2023-12-22T00:05:39;2.20;;;2.10;;
14396;SDS011;50653;47.810;13.022;2023-12-22T00:08:05;1.93;;;1.23;;
14396;SDS011;50653;47.810;13.022;2023-12-22T00:10:31;3.83;;;3.53;;
14396;SDS011;50653;47.810;13.022;2023-12-22T00:12:56;4.00;;;3.70;;
14396;SDS011;50653;47.810;13.022;2023-12-22T00:15:22;2.10;;;2.00;;
14396;SDS011;50653;47.810;13.022;2023-12-22T00:17:48;2.27;;;2.17;;
14396;SDS011;50653;47.810;13.022;2023-12-22T00:20:13;2.10;;;2.00;;
14396;SDS011;50653;47.810;13.022;2023-12-22T00:22:39;4.63;;;2.90;;
14396;SDS011;50653;47.810;13.022;2023-12-22T00:25:05;4.27;;;3.33;;
14396;SDS011;50653;47.810;13.022;2023-12-22T00:27:33;4.97;;;4.20;;
14396;SDS011;50653;47.810;13.022;2023-12-22T00:29:58;2.83;;;2.63;;
14396;SDS011;50653;47.810;13.022;2023-12-22T00:32:24;1.10;;;0.90;;
14396;SDS011;50653;47.810;13.022;2023-12-22T00:34:50;0.90;;;0.60;;
14396;SDS011;50653;47.810;13.022;2023-12-22T00:37:16;1.67;;;0.60;;
14396;SDS011;50653;47.810;13.022;2023-12-22T00:39:42;0.53;;;0.40;;
14396;SDS011;50653;47.810;13.022;2023-12-22T00:42:07;0.70;;;0.60;;
14396;SDS011;50653;47.810;13.022;2023-12-22T00:44:33;1.13;;;0.40;;
14396;SDS011;50653;47.810;13.022;2023-12-22T00:46:59;1.70;;;0.60;;
14396;SDS011;50653;47.810;13.022;2023-12-22T00:49:24;0.50;;;0.40;;
14396;SDS011;50653;47.810;13.022;2023-12-22T00:51:50;1.20;;;0.53;;
14396;SDS011;50653;47.810;13.022;2023-12-22T00:54:15;1.90;;;0.40;;
14396;SDS011;50653;47.810;13.022;2023-12-22T00:56:41;0.57;;;0.40;;
14396;SDS011;50653;47.810;13.022;2023-12-22T00:59:07;3.03;;;0.40;;
14396;SDS011;50653;47.810;13.022;2023-12-22T01:01:33;0.50;;;0.40;;
14396;SDS011;50653;47.810;13.022;2023-12-22T01:03:58;1.13;;;0.40;;
14396;SDS011;50653;47.810;13.022;2023-12-22T01:06:24;0.90;;;0.40;;
14396;SDS011;50653;47.810;13.022;2023-12-22T01:08:49;0.50;;;0.37;;
14396;SDS011;50653;47.810;13.022;2023-12-22T01:11:16;1.87;;;0.60;;
14396;SDS011;50653;47.810;13.022;2023-12-22T01:13:42;1.63;;;0.40;;
14396;SDS011;50653;47.810;13.022;2023-12-22T01:16:08;0.50;;;0.40;;
14396;SDS011;50653;47.810;13.022;2023-12-22T01:18:34;0.50;;;0.40;;
14396;SDS011;50653;47.810;13.022;2023-12-22T01:21:00;0.70;;;0.50;;
14396;SDS011;50653;47.810;13.022;2023-12-22T01:23:25;0.40;;;0.30;;
14396;SDS011;50653;47.810;13.022;2023-12-22T01:25:51;2.07;;;0.50;;
14396;SDS011;50653;47.810;13.022;2023-12-22T01:28:17;0.60;;;0.40;;
14396;SDS011;50653;47.810;13.022;2023-12-22T01:30:43;0.70;;;0.40;;
14396;SDS011;50653;47.810;13.022;2023-12-22T01:33:08;1.23;;;0.83;;
14396;SDS011;50653;47.810;13.022;2023-12-22T01:35:34;0.97;;;0.47;;
14396;SDS011;50653;47.810;13.022;2023-12-22T01:38:00;0.50;;;0.40;;
14396;SDS011;50653;47.810;13.022;2023-12-22T01:40:25;0.40;;;0.30;;
14396;SDS011;50653;47.810;13.022;2023-12-22T01:42:51;1.03;;;0.50;;
14396;SDS011;50653;47.810;13.022;2023-12-22T01:45:17;0.67;;;0.40;;
14396;SDS011;50653;47.810;13.022;2023-12-22T01:47:43;0.50;;;0.40;;
14396;SDS011;50653;47.810;13.022;2023-12-22T01:50:11;0.60;;;0.30;;
14396;SDS011;50653;47.810;13.022;2023-12-22T01:52:38;0.60;;;0.40;;
14396;SDS011;50653;47.810;13.022;2023-12-22T01:55:05;0.70;;;0.50;;
14396;SDS011;50653;47.810;13.022;2023-12-22T01:57:32;0.50;;;0.30;;
14396;SDS011;50653;47.810;13.022;2023-12-22T02:00:00;0.50;;;0.30;;
14396;SDS011;50653;47.810;13.022;2023-12-22T02:02:36;0.40;;;0.30;;
14396;SDS011;50653;47.810;13.022;2023-12-22T02:05:04;0.50;;;0.40;;
14396;SDS011;50653;47.810;13.022;2023-12-22T02:07:30;0.57;;;0.30;;
14396;SDS011;50653;47.810;13.022;2023-12-22T02:09:56;2.90;;;0.50;;
14396;SDS011;50653;47.810;13.022;2023-12-22T02:12:22;0.50;;;0.37;;
14396;SDS011;50653;47.810;13.022;2023-12-22T02:14:48;0.60;;;0.50;;
14396;SDS011;50653;47.810;13.022;2023-12-22T02:19:49;0.40;;;0.30;;
14396;SDS011;50653;47.810;13.022;2023-12-22T02:22:16;0.50;;;0.30;;
14396;SDS011;50653;47.810;13.022;2023-12-22T02:24:42;0.60;;;0.50;;
14396;SDS011;50653;47.810;13.022;2023-12-22T02:32:51;0.73;;;0.40;;
14396;SDS011;50653;47.810;13.022;2023-12-22T02:35:23;0.40;;;0.30;;
14396;SDS011;50653;47.810;13.022;2023-12-22T02:37:51;0.80;;;0.40;;
14396;SDS011;50653;47.810;13.022;2023-12-22T02:40:18;0.53;;;0.40;;
14396;SDS011;50653;47.810;13.022;2023-12-22T02:42:44;0.67;;;0.40;;
14396;SDS011;50653;47.810;13.022;2023-12-22T02:45:13;1.13;;;0.30;;
14396;SDS011;50653;47.810;13.022;2023-12-22T02:47:40;0.50;;;0.37;;
14396;SDS011;50653;47.810;13.022;2023-12-22T02:50:07;0.50;;;0.40;;
14396;SDS011;50653;47.810;13.022;2023-12-22T02:52:33;0.40;;;0.30;;
14396;SDS011;50653;47.810;13.022;2023-12-22T02:54:59;0.50;;;0.40;;
14396;SDS011;50653;47.810;13.022;2023-12-22T02:57:27;0.47;;;0.30;;
14396;SDS011;50653;47.810;13.022;2023-12-22T02:59:52;1.73;;;0.50;;
14396;SDS011;50653;47.810;13.022;2023-12-22T03:02:18;0.40;;;0.30;;
14396;SDS011;50653;47.810;13.022;2023-12-22T03:04:44;0.50;;;0.40;;
14396;SDS011;50653;47.810;13.022;2023-12-22T03:07:11;0.40;;;0.30;;
14396;SDS011;50653;47.810;13.022;2023-12-22T03:09:37;0.40;;;0.30;;
14396;SDS011;50653;47.810;13.022;2023-12-22T03:12:04;0.50;;;0.30;;
14396;SDS011;50653;47.810;13.022;2023-12-22T03:14:33;0.50;;;0.40;;
14396;SDS011;50653;47.810;13.022;2023-12-22T03:17:00;0.70;;;0.40;;
14396;SDS011;50653;47.810;13.022;2023-12-22T03:19:26;0.50;;;0.30;;
14396;SDS011;50653;47.810;13.022;2023-12-22T03:21:52;0.50;;;0.30;;
14396;SDS011;50653;47.810;13.022;2023-12-22T03:24:18;0.80;;;0.50;;
14396;SDS011;50653;47.810;13.022;2023-12-22T03:26:45;0.60;;;0.50;;
14396;SDS011;50653;47.810;13.022;2023-12-22T03:29:11;0.60;;;0.50;;
14396;SDS011;50653;47.810;13.022;2023-12-22T03:31:37;0.50;;;0.40;;
14396;SDS011;50653;47.810;13.022;2023-12-22T03:34:03;0.73;;;0.40;;
14396;SDS011;50653;47.810;13.022;2023-12-22T03:36:28;0.70;;;0.40;;
14396;SDS011;50653;47.810;13.022;2023-12-22T03:38:54;0.50;;;0.30;;
14396;SDS011;50653;47.810;13.022;2023-12-22T03:41:20;0.50;;;0.30;;
14396;SDS011;50653;47.810;13.022;2023-12-22T03:43:45;0.50;;;0.40;;
14396;SDS011;50653;47.810;13.022;2023-12-22T03:46:11;0.50;;;0.40;;
14396;SDS011;50653;47.810;13.022;2023-12-22T03:48:37;0.60;;;0.40;;
14396;SDS011;50653;47.810;13.022;2023-12-22T03:51:02;0.43;;;0.30;;
14396;SDS011;50653;47.810;13.022;2023-12-22T03:53:28;0.40;;;0.30;;
14396;SDS011;50653;47.810;13.022;2023-12-22T03:55:54;0.40;;;0.30;;
14396;SDS011;50653;47.810;13.022;2023-12-22T03:58:20;0.50;;;0.40;;
14396;SDS011;50653;47.810;13.022;2023-12-22T04:00:46;0.40;;;0.30;;
14396;SDS011;50653;47.810;13.022;2023-12-22T04:03:12;0.40;;;0.30;;
14396;SDS011;50653;47.810;13.022;2023-12-22T04:05:38;0.40;;;0.30;;
14396;SDS011;50653;47.810;13.022;2023-12-22T04:08:04;0.60;;;0.40;;
14396;SDS011;50653;47.810;13.022;2023-12-22T04:10:31;0.80;;;0.50;;
14396;SDS011;50653;47.810;13.022;2023-12-22T04:12:56;0.50;;;0.30;;
14396;SDS011;50653;47.810;13.022;2023-12-22T04:15:22;0.50;;;0.30;;
14396;SDS011;50653;47.810;13.022;2023-12-22T04:17:48;0.47;;;0.40;;
14396;SDS011;50653;47.810;13.022;2023-12-22T04:20:14;0.60;;;0.40;;
14396;SDS011;50653;47.810;13.022;2023-12-22T04:22:40;0.57;;;0.40;;
14396;SDS011;50653;47.810;13.022;2023-12-22T04:25:06;0.60;;;0.40;;
14396;SDS011;50653;47.810;13.022;2023-12-22T04:27:33;0.50;;;0.30;;
14396;SDS011;50653;47.810;13.022;2023-12-22T04:30:02;0.50;;;0.40;;
14396;SDS011;50653;47.810;13.022;2023-12-22T04:32:27;1.73;;;0.40;;
14396;SDS011;50653;47.810;13.022;2023-12-22T04:34:53;0.60;;;0.33;;
14396;SDS011;50653;47.810;13.022;2023-12-22T04:37:19;0.80;;;0.40;;
14396;SDS011;50653;47.810;13.022;2023-12-22T04:39:44;0.83;;;0.40;;
14396;SDS011;50653;47.810;13.022;2023-12-22T04:42:10;0.60;;;0.37;;
14396;SDS011;50653;47.810;13.022;2023-12-22T04:44:36;0.50;;;0.30;;
14396;SDS011;50653;47.810;13.022;2023-12-22T04:47:02;0.50;;;0.30;;
14396;SDS011;50653;47.810;13.022;2023-12-22T04:49:28;0.50;;;0.40;;
14396;SDS011;50653;47.810;13.022;2023-12-22T04:51:53;0.50;;;0.30;;
14396;SDS011;50653;47.810;13.022;2023-12-22T04:54:19;0.40;;;0.30;;
14396;SDS011;50653;47.810;13.022;2023-12-22T04:56:45;0.50;;;0.30;;
14396;SDS011;50653;47.810;13.022;2023-12-22T04:59:11;0.50;;;0.30;;
14396;SDS011;50653;47.810;13.022;2023-12-22T05:01:36;0.50;;;0.40;;
14396;SDS011;50653;47.810;13.022;2023-12-22T05:04:02;0.50;;;0.40;;
14396;SDS011;50653;47.810;13.022;2023-12-22T05:06:28;1.00;;;0.30;;
14396;SDS011;50653;47.810;13.022;2023-12-22T05:08:56;0.40;;;0.30;;
14396;SDS011;50653;47.810;13.022;2023-12-22T05:11:22;0.40;;;0.30;;
14396;SDS011;50653;47.810;13.022;2023-12-22T05:13:48;0.50;;;0.40;;
14396;SDS011;50653;47.810;13.022;2023-12-22T05:16:14;0.60;;;0.40;;
14396;SDS011;50653;47.810;13.022;2023-12-22T05:18:39;0.83;;;0.57;;
14396;SDS011;50653;47.810;13.022;2023-12-22T05:21:06;0.60;;;0.50;;
14396;SDS011;50653;47.810;13.022;2023-12-22T05:23:32;0.50;;;0.40;;
14396;SDS011;50653;47.810;13.022;2023-12-22T05:25:59;0.57;;;0.47;;
14396;SDS011;50653;47.810;13.022;2023-12-22T05:28:24;0.50;;;0.40;;
14396;SDS011;50653;47.810;13.022;2023-12-22T05:30:50;0.97;;;0.50;;
14396;SDS011;50653;47.810;13.022;2023-12-22T05:33:16;1.27;;;0.40;;
14396;SDS011;50653;47.810;13.022;2023-12-22T05:35:42;1.00;;;0.50;;
14396;SDS011;50653;47.810;13.022;2023-12-22T05:38:07;2.07;;;0.47;;
14396;SDS011;50653;47.810;13.022;2023-12-22T05:40:33;0.70;;;0.50;;
14396;SDS011;50653;47.810;13.022;2023-12-22T05:42:59;0.70;;;0.50;;
14396;SDS011;50653;47.810;13.022;2023-12-22T05:45:25;2.40;;;1.07;;
14396;SDS011;50653;47.810;13.022;2023-12-22T05:47:50;0.60;;;0.50;;
14396;SDS011;50653;47.810;13.022;2023-12-22T05:50:16;0.87;;;0.60;;
14396;SDS011;50653;47.810;13.022;2023-12-22T05:52:42;1.30;;;0.80;;
14396;SDS011;50653;47.810;13.022;2023-12-22T05:55:11;2.17;;;0.53;;
14396;SDS011;50653;47.810;13.022;2023-12-22T05:57:37;1.17;;;0.83;;
14396;SDS011;50653;47.810;13.022;2023-12-22T06:00:03;0.97;;;0.70;;
14396;SDS011;50653;47.810;13.022;2023-12-22T06:02:32;1.87;;;0.70;;
14396;SDS011;50653;47.810;13.022;2023-12-22T06:04:58;2.90;;;0.87;;
14396;SDS011;50653;47.810;13.022;2023-12-22T06:07:24;2.97;;;0.73;;
14396;SDS011;50653;47.810;13.022;2023-12-22T06:09:51;2.60;;;0.90;;
14396;SDS011;50653;47.810;13.022;2023-12-22T06:12:16;2.13;;;0.70;;
14396;SDS011;50653;47.810;13.022;2023-12-22T06:14:42;0.57;;;0.47;;
14396;SDS011;50653;47.810;13.022;2023-12-22T06:17:08;0.80;;;0.50;;
14396;SDS011;50653;47.810;13.022;2023-12-22T06:19:35;0.83;;;0.50;;
14396;SDS011;50653;47.810;13.022;2023-12-22T06:22:01;1.60;;;0.70;;
14396;SDS011;50653;47.810;13.022;2023-12-22T06:24:27;1.37;;;0.50;;
14396;SDS011;50653;47.810;13.022;2023-12-22T06:26:52;0.60;;;0.50;;
14396;SDS011;50653;47.810;13.022;2023-12-22T06:29:18;0.50;;;0.50;;
14396;SDS011;50653;47.810;13.022;2023-12-22T06:31:44;0.40;;;0.30;;
14396;SDS011;50653;47.810;13.022;2023-12-22T06:34:09;0.50;;;0.30;;
14396;SDS011;50653;47.810;13.022;2023-12-22T06:36:35;0.80;;;0.40;;
14396;SDS011;50653;47.810;13.022;2023-12-22T06:39:02;0.70;;;0.50;;
14396;SDS011;50653;47.810;13.022;2023-12-22T06:41:28;0.93;;;0.60;;
14396;SDS011;50653;47.810;13.022;2023-12-22T06:43:56;1.53;;;1.43;;
14396;SDS011;50653;47.810;13.022;2023-12-22T06:46:23;2.30;;;2.10;;
14396;SDS011;50653;47.810;13.022;2023-12-22T06:48:55;1.10;;;1.00;;
14396;SDS011;50653;47.810;13.022;2023-12-22T06:51:25;0.80;;;0.63;;
14396;SDS011;50653;47.810;13.022;2023-12-22T06:53:52;0.60;;;0.50;;
14396;SDS011;50653;47.810;13.022;2023-12-22T06:56:20;1.70;;;1.60;;
14396;SDS011;50653;47.810;13.022;2023-12-22T06:58:47;2.20;;;2.07;;
14396;SDS011;50653;47.810;13.022;2023-12-22T07:01:17;2.33;;;2.13;;
14396;SDS011;50653;47.810;13.022;2023-12-22T07:03:47;2.30;;;2.20;;
14396;SDS011;50653;47.810;13.022;2023-12-22T07:06:14;1.20;;;1.10;;
14396;SDS011;50653;47.810;13.022;2023-12-22T07:11:39;1.47;;;1.10;;
14396;SDS011;50653;47.810;13.022;2023-12-22T07:14:06;0.90;;;0.70;;
14396;SDS011;50653;47.810;13.022;2023-12-22T07:16:32;0.60;;;0.50;;
14396;SDS011;50653;47.810;13.022;2023-12-22T07:18:58;0.63;;;0.40;;
14396;SDS011;50653;47.810;13.022;2023-12-22T07:21:24;0.80;;;0.80;;
14396;SDS011;50653;47.810;13.022;2023-12-22T07:23:50;1.90;;;0.87;;
14396;SDS011;50653;47.810;13.022;2023-12-22T07:26:15;1.17;;;1.07;;
14396;SDS011;50653;47.810;13.022;2023-12-22T07:28:45;1.13;;;1.03;;
14396;SDS011;50653;47.810;13.022;2023-12-22T07:31:11;2.03;;;1.50;;
14396;SDS011;50653;47.810;13.022;2023-12-22T07:33:37;2.30;;;1.50;;
14396;SDS011;50653;47.810;13.022;2023-12-22T07:36:03;1.10;;;1.00;;
14396;SDS011;50653;47.810;13.022;2023-12-22T07:38:29;0.77;;;0.63;;
14396;SDS011;50653;47.810;13.022;2023-12-22T07:40:55;1.00;;;0.47;;
14396;SDS011;50653;47.810;13.022;2023-12-22T07:43:21;0.60;;;0.50;;
14396;SDS011;50653;47.810;13.022;2023-12-22T07:45:46;1.00;;;0.90;;
14396;SDS011;50653;47.810;13.022;2023-12-22T07:48:13;1.40;;;1.30;;
14396;SDS011;50653;47.810;13.022;2023-12-22T07:50:40;1.10;;;0.90;;
14396;SDS011;50653;47.810;13.022;2023-12-22T07:53:07;1.80;;;0.73;;
14396;SDS011;50653;47.810;13.022;2023-12-22T07:55:33;0.70;;;0.60;;
14396;SDS011;50653;47.810;13.022;2023-12-22T07:57:59;1.03;;;0.63;;
14396;SDS011;50653;47.810;13.022;2023-12-22T08:00:25;0.70;;;0.47;;
14396;SDS011;50653;47.810;13.022;2023-12-22T08:02:50;0.93;;;0.50;;
14396;SDS011;50653;47.810;13.022;2023-12-22T08:05:17;0.50;;;0.40;;
14396;SDS011;50653;47.810;13.022;2023-12-22T08:07:43;0.70;;;0.67;;
14396;SDS011;50653;47.810;13.022;2023-12-22T08:10:09;0.60;;;0.53;;
14396;SDS011;50653;47.810;13.022;2023-12-22T08:12:35;0.50;;;0.40;;
14396;SDS011;50653;47.810;13.022;2023-12-22T08:15:01;0.70;;;0.40;;
14396;SDS011;50653;47.810;13.022;2023-12-22T08:17:27;0.60;;;0.50;;
14396;SDS011;50653;47.810;13.022;2023-12-22T08:19:53;0.77;;;0.60;;
14396;SDS011;50653;47.810;13.022;2023-12-22T08:22:19;0.50;;;0.50;;
14396;SDS011;50653;47.810;13.022;2023-12-22T08:24:45;1.73;;;0.70;;
14396;SDS011;50653;47.810;13.022;2023-12-22T08:27:12;0.70;;;0.60;;
14396;SDS011;50653;47.810;13.022;2023-12-22T08:29:38;0.60;;;0.40;;
14396;SDS011;50653;47.810;13.022;2023-12-22T08:32:04;0.80;;;0.60;;
14396;SDS011;50653;47.810;13.022;2023-12-22T08:34:30;0.77;;;0.60;;
14396;SDS011;50653;47.810;13.022;2023-12-22T08:36:55;1.07;;;1.00;;
14396;SDS011;50653;47.810;13.022;2023-12-22T08:39:21;0.90;;;0.77;;
14396;SDS011;50653;47.810;13.022;2023-12-22T08:41:49;2.90;;;2.70;;
14396;SDS011;50653;47.810;13.022;2023-12-22T08:44:15;1.70;;;1.60;;
14396;SDS011;50653;47.810;13.022;2023-12-22T08:46:41;1.70;;;1.60;;
14396;SDS011;50653;47.810;13.022;2023-12-22T08:49:06;3.67;;;3.37;;
14396;SDS011;50653;47.810;13.022;2023-12-22T08:51:32;4.00;;;3.57;;
14396;SDS011;50653;47.810;13.022;2023-12-22T08:53:59;4.10;;;3.70;;
14396;SDS011;50653;47.810;13.022;2023-12-22T08:56:25;2.87;;;2.67;;
14396;SDS011;50653;47.810;13.022;2023-12-22T08:58:52;3.63;;;1.00;;
14396;SDS011;50653;47.810;13.022;2023-12-22T09:01:25;0.60;;;0.50;;
14396;SDS011;50653;47.810;13.022;2023-12-22T09:03:51;0.80;;;0.40;;
14396;SDS011;50653;47.810;13.022;2023-12-22T09:06:18;0.70;;;0.50;;
14396;SDS011;50653;47.810;13.022;2023-12-22T09:08:46;0.60;;;0.50;;
14396;SDS011;50653;47.810;13.022;2023-12-22T09:11:12;0.70;;;0.50;;
14396;SDS011;50653;47.810;13.022;2023-12-22T09:13:40;0.67;;;0.67;;
14396;SDS011;50653;47.810;13.022;2023-12-22T09:16:06;0.73;;;0.50;;
14396;SDS011;50653;47.810;13.022;2023-12-22T09:18:33;0.60;;;0.43;;
14396;SDS011;50653;47.810;13.022;2023-12-22T09:20:59;0.50;;;0.40;;
14396;SDS011;50653;47.810;13.022;2023-12-22T09:23:25;0.60;;;0.40;;
14396;SDS011;50653;47.810;13.022;2023-12-22T09:25:51;0.60;;;0.50;;
14396;SDS011;50653;47.810;13.022;2023-12-22T09:28:17;12.60;;;9.13;;
14396;SDS011;50653;47.810;13.022;2023-12-22T09:30:42;14.57;;;10.30;;
14396;SDS011;50653;47.810;13.022;2023-12-22T09:33:11;7.50;;;5.90;;
14396;SDS011;50653;47.810;13.022;2023-12-22T09:35:37;9.13;;;5.27;;
14396;SDS011;50653;47.810;13.022;2023-12-22T09:38:07;4.53;;;4.20;;
14396;SDS011;50653;47.810;13.022;2023-12-22T09:40:37;3.67;;;3.40;;
14396;SDS011;50653;47.810;13.022;2023-12-22T09:43:03;3.90;;;3.60;;
14396;SDS011;50653;47.810;13.022;2023-12-22T09:45:32;2.53;;;1.73;;
14396;SDS011;50653;47.810;13.022;2023-12-22T09:47:59;3.07;;;1.50;;
14396;SDS011;50653;47.810;13.022;2023-12-22T09:50:28;0.80;;;0.70;;
14396;SDS011;50653;47.810;13.022;2023-12-22T09:52:55;1.30;;;1.20;;
14396;SDS011;50653;47.810;13.022;2023-12-22T09:55:21;0.60;;;0.60;;
14396;SDS011;50653;47.810;13.022;2023-12-22T09:57:48;0.77;;;0.70;;
14396;SDS011;50653;47.810;13.022;2023-12-22T10:00:14;1.13;;;0.50;;
14396;SDS011;50653;47.810;13.022;2023-12-22T10:02:42;0.60;;;0.50;;
14396;SDS011;50653;47.810;13.022;2023-12-22T10:05:10;1.10;;;0.50;;
14396;SDS011;50653;47.810;13.022;2023-12-22T10:07:38;1.70;;;1.60;;
14396;SDS011;50653;47.810;13.022;2023-12-22T10:10:05;1.43;;;1.33;;
14396;SDS011;50653;47.810;13.022;2023-12-22T10:12:33;1.30;;;1.20;;
14396;SDS011;50653;47.810;13.022;2023-12-22T10:15:00;1.60;;;0.90;;
14396;SDS011;50653;47.810;13.022;2023-12-22T10:17:28;2.13;;;0.80;;
14396;SDS011;50653;47.810;13.022;2023-12-22T10:19:55;1.00;;;0.70;;
14396;SDS011;50653;47.810;13.022;2023-12-22T10:22:20;0.80;;;0.70;;
14396;SDS011;50653;47.810;13.022;2023-12-22T10:24:49;0.90;;;0.80;;
14396;SDS011;50653;47.810;13.022;2023-12-22T10:27:18;1.67;;;1.57;;
14396;SDS011;50653;47.810;13.022;2023-12-22T10:29:50;1.63;;;1.53;;
14396;SDS011;50653;47.810;13.022;2023-12-22T10:32:19;2.10;;;1.17;;
14396;SDS011;50653;47.810;13.022;2023-12-22T10:34:46;1.50;;;1.40;;
14396;SDS011;50653;47.810;13.022;2023-12-22T10:37:12;1.23;;;1.13;;
14396;SDS011;50653;47.810;13.022;2023-12-22T10:39:38;1.10;;;1.00;;
14396;SDS011;50653;47.810;13.022;2023-12-22T10:42:04;1.30;;;0.93;;
14396;SDS011;50653;47.810;13.022;2023-12-22T10:44:30;1.17;;;1.03;;
14396;SDS011;50653;47.810;13.022;2023-12-22T10:46:56;1.73;;;1.17;;
14396;SDS011;50653;47.810;13.022;2023-12-22T10:49:22;0.80;;;0.77;;
14396;SDS011;50653;47.810;13.022;2023-12-22T10:51:49;0.93;;;0.83;;
14396;SDS011;50653;47.810;13.022;2023-12-22T10:54:15;1.40;;;0.90;;
14396;SDS011;50653;47.810;13.022;2023-12-22T10:56:42;1.80;;;0.70;;
14396;SDS011;50653;47.810;13.022;2023-12-22T10:59:11;2.77;;;0.90;;
14396;SDS011;50653;47.810;13.022;2023-12-22T11:01:37;2.00;;;0.90;;
14396;SDS011;50653;47.810;13.022;2023-12-22T11:04:07;2.10;;;0.77;;
14396;SDS011;50653;47.810;13.022;2023-12-22T11:06:41;1.20;;;0.70;;
14396;SDS011;50653;47.810;13.022;2023-12-22T11:09:08;0.70;;;0.50;;
14396;SDS011;50653;47.810;13.022;2023-12-22T11:11:35;1.10;;;0.90;;
14396;SDS011;50653;47.810;13.022;2023-12-22T11:14:02;2.20;;;1.03;;
14396;SDS011;50653;47.810;13.022;2023-12-22T11:16:29;1.20;;;0.87;;
14396;SDS011;50653;47.810;13.022;2023-12-22T11:18:55;1.50;;;0.80;;
14396;SDS011;50653;47.810;13.022;2023-12-22T11:21:21;1.40;;;0.90;;
14396;SDS011;50653;47.810;13.022;2023-12-22T11:23:49;1.87;;;0.70;;
14396;SDS011;50653;47.810;13.022;2023-12-22T11:26:18;0.90;;;0.50;;
14396;SDS011;50653;47.810;13.022;2023-12-22T11:28:46;0.80;;;0.60;;
14396;SDS011;50653;47.810;13.022;2023-12-22T11:31:13;0.63;;;0.40;;
14396;SDS011;50653;47.810;13.022;2023-12-22T11:33:40;1.43;;;0.63;;
14396;SDS011;50653;47.810;13.022;2023-12-22T11:36:09;1.60;;;0.60;;
14396;SDS011;50653;47.810;13.022;2023-12-22T11:38:37;1.43;;;0.80;;
14396;SDS011;50653;47.810;13.022;2023-12-22T11:41:04;0.73;;;0.50;;
14396;SDS011;50653;47.810;13.022;2023-12-22T11:43:31;1.10;;;0.60;;
14396;SDS011;50653;47.810;13.022;2023-12-22T11:46:05;0.80;;;0.57;;
14396;SDS011;50653;47.810;13.022;2023-12-22T11:48:31;2.83;;;0.50;;
14396;SDS011;50653;47.810;13.022;2023-12-22T11:50:57;0.60;;;0.40;;
14396;SDS011;50653;47.810;13.022;2023-12-22T11:53:24;0.77;;;0.40;;
14396;SDS011;50653;47.810;13.022;2023-12-22T11:55:57;1.27;;;0.50;;
14396;SDS011;50653;47.810;13.022;2023-12-22T12:01:09;0.60;;;0.47;;
14396;SDS011;50653;47.810;13.022;2023-12-22T12:08:54;0.60;;;0.40;;
14396;SDS011;50653;47.810;13.022;2023-12-22T12:11:27;1.83;;;0.50;;
14396;SDS011;50653;47.810;13.022;2023-12-22T12:14:32;0.60;;;0.43;;
14396;SDS011;50653;47.810;13.022;2023-12-22T12:17:06;0.70;;;0.50;;
14396;SDS011;50653;47.810;13.022;2023-12-22T12:19:39;0.70;;;0.67;;
14396;SDS011;50653;47.810;13.022;2023-12-22T12:22:06;1.13;;;1.03;;
14396;SDS011;50653;47.810;13.022;2023-12-22T12:24:33;0.70;;;0.60;;
14396;SDS011;50653;47.810;13.022;2023-12-22T12:26:59;0.77;;;0.50;;
14396;SDS011;50653;47.810;13.022;2023-12-22T12:29:24;1.40;;;0.57;;
14396;SDS011;50653;47.810;13.022;2023-12-22T12:31:50;0.63;;;0.50;;
14396;SDS011;50653;47.810;13.022;2023-12-22T12:34:16;1.03;;;0.50;;
14396;SDS011;50653;47.810;13.022;2023-12-22T12:36:46;1.40;;;0.70;;
14396;SDS011;50653;47.810;13.022;2023-12-22T12:39:14;0.60;;;0.40;;
14396;SDS011;50653;47.810;13.022;2023-12-22T12:41:41;0.83;;;0.83;;
14396;SDS011;50653;47.810;13.022;2023-12-22T12:44:11;1.47;;;0.53;;
14396;SDS011;50653;47.810;13.022;2023-12-22T12:46:37;0.90;;;0.80;;
14396;SDS011;50653;47.810;13.022;2023-12-22T12:49:08;1.80;;;0.70;;
14396;SDS011;50653;47.810;13.022;2023-12-22T12:51:39;1.00;;;0.90;;
14396;SDS011;50653;47.810;13.022;2023-12-22T12:54:13;1.00;;;0.77;;
14396;SDS011;50653;47.810;13.022;2023-12-22T12:56:39;0.70;;;0.57;;
14396;SDS011;50653;47.810;13.022;2023-12-22T12:59:09;1.50;;;0.80;;
14396;SDS011;50653;47.810;13.022;2023-12-22T13:04:12;1.30;;;0.80;;
14396;SDS011;50653;47.810;13.022;2023-12-22T13:06:48;2.83;;;0.53;;
14396;SDS011;50653;47.810;13.022;2023-12-22T13:09:15;0.90;;;0.70;;
14396;SDS011;50653;47.810;13.022;2023-12-22T13:11:42;0.70;;;0.60;;
14396;SDS011;50653;47.810;13.022;2023-12-22T13:14:09;0.80;;;0.60;;
14396;SDS011;50653;47.810;13.022;2023-12-22T13:16:35;1.37;;;0.50;;
14396;SDS011;50653;47.810;13.022;2023-12-22T13:19:01;0.93;;;0.63;;
14396;SDS011;50653;47.810;13.022;2023-12-22T13:21:28;0.50;;;0.47;;
14396;SDS011;50653;47.810;13.022;2023-12-22T13:26:38;0.70;;;0.50;;
14396;SDS011;50653;47.810;13.022;2023-12-22T13:29:05;1.40;;;0.50;;
14396;SDS011;50653;47.810;13.022;2023-12-22T13:31:31;2.03;;;0.90;;
14396;SDS011;50653;47.810;13.022;2023-12-22T13:33:58;0.83;;;0.70;;
14396;SDS011;50653;47.810;13.022;2023-12-22T13:36:27;1.57;;;0.70;;
14396;SDS011;50653;47.810;13.022;2023-12-22T13:38:58;0.90;;;0.57;;
14396;SDS011;50653;47.810;13.022;2023-12-22T13:41:24;1.53;;;0.50;;
14396;SDS011;50653;47.810;13.022;2023-12-22T13:43:50;0.83;;;0.70;;
14396;SDS011;50653;47.810;13.022;2023-12-22T13:46:15;0.97;;;0.80;;
14396;SDS011;50653;47.810;13.022;2023-12-22T13:48:41;2.00;;;0.60;;
14396;SDS011;50653;47.810;13.022;2023-12-22T13:51:08;0.90;;;0.63;;
14396;SDS011;50653;47.810;13.022;2023-12-22T13:53:35;0.80;;;0.53;;
14396;SDS011;50653;47.810;13.022;2023-12-22T13:56:11;0.63;;;0.47;;
14396;SDS011;50653;47.810;13.022;2023-12-22T13:58:44;0.90;;;0.40;;
14396;SDS011;50653;47.810;13.022;2023-12-22T14:01:16;0.80;;;0.60;;
14396;SDS011;50653;47.810;13.022;2023-12-22T14:03:42;1.30;;;0.73;;
14396;SDS011;50653;47.810;13.022;2023-12-22T14:06:09;1.30;;;0.60;;
14396;SDS011;50653;47.810;13.022;2023-12-22T14:08:39;0.80;;;0.60;;
14396;SDS011;50653;47.810;13.022;2023-12-22T14:11:06;0.70;;;0.50;;
14396;SDS011;50653;47.810;13.022;2023-12-22T14:13:32;0.70;;;0.50;;
14396;SDS011;50653;47.810;13.022;2023-12-22T14:15:58;0.77;;;0.50;;
14396;SDS011;50653;47.810;13.022;2023-12-22T14:18:23;0.90;;;0.50;;
14396;SDS011;50653;47.810;13.022;2023-12-22T14:20:49;0.70;;;0.50;;
14396;SDS011;50653;47.810;13.022;2023-12-22T14:23:16;0.60;;;0.40;;
14396;SDS011;50653;47.810;13.022;2023-12-22T14:25:42;2.50;;;0.60;;
14396;SDS011;50653;47.810;13.022;2023-12-22T14:28:08;0.60;;;0.50;;
14396;SDS011;50653;47.810;13.022;2023-12-22T14:30:34;0.80;;;0.50;;
14396;SDS011;50653;47.810;13.022;2023-12-22T14:33:00;0.50;;;0.40;;
14396;SDS011;50653;47.810;13.022;2023-12-22T14:35:25;0.50;;;0.40;;
14396;SDS011;50653;47.810;13.022;2023-12-22T14:37:51;0.50;;;0.40;;
14396;SDS011;50653;47.810;13.022;2023-12-22T14:40:17;0.60;;;0.40;;
14396;SDS011;50653;47.810;13.022;2023-12-22T14:42:43;0.50;;;0.40;;
14396;SDS011;50653;47.810;13.022;2023-12-22T14:45:09;1.50;;;0.47;;
14396;SDS011;50653;47.810;13.022;2023-12-22T14:47:35;1.23;;;0.40;;
14396;SDS011;50653;47.810;13.022;2023-12-22T14:50:01;0.50;;;0.33;;
14396;SDS011;50653;47.810;13.022;2023-12-22T14:52:31;1.10;;;0.70;;
14396;SDS011;50653;47.810;13.022;2023-12-22T14:54:57;0.50;;;0.40;;